createdAt,value
2023-05-11T00:01:09.496Z,100354.88
2023-05-11T00:03:40.075Z,100356.06
2023-05-11T00:06:10.463Z,100353.22
2023-05-11T00:08:42.899Z,100357.22
2023-05-11T00:11:12.874Z,100356.38
2023-05-11T00:13:42.836Z,100347.09
2023-05-11T00:16:13.413Z,100351.03
2023-05-11T00:18:44.280Z,100344.56
2023-05-11T00:21:14.701Z,100339.28
2023-05-11T00:23:47.392Z,100336.44
2023-05-11T00:26:17.452Z,100329.16
2023-05-11T00:28:47.943Z,100316.22
2023-05-11T00:31:18.561Z,100318.59
2023-05-11T00:33:48.573Z,100314.97
2023-05-11T00:36:18.744Z,100318.97
2023-05-11T00:38:51.102Z,100320.59
2023-05-11T00:41:22.029Z,100314.50
2023-05-11T00:43:52.489Z,100315.72
2023-05-11T00:46:23.468Z,100309.66
2023-05-11T00:48:54.081Z,100312.03
2023-05-11T00:51:25.496Z,100311.66
2023-05-11T00:53:58.027Z,100319.69
2023-05-11T00:56:28.914Z,100319.25
2023-05-11T00:58:59.972Z,100315.22
2023-05-11T01:01:31.381Z,100312.75
2023-05-11T01:04:01.481Z,100309.56
2023-05-11T01:06:47.564Z,100305.47
2023-05-11T01:09:41.136Z,100307.06
2023-05-11T01:12:23.655Z,100311.50
2023-05-11T01:15:08.936Z,100303.41
2023-05-11T01:17:51.372Z,100311.06
2023-05-11T01:20:27.635Z,100314.69
2023-05-11T01:23:44.893Z,100307.44
2023-05-11T01:26:41.488Z,100311.00
2023-05-11T01:29:43.747Z,100312.59
2023-05-11T01:32:22.378Z,100332.28
2023-05-11T01:35:03.580Z,100329.84
2023-05-11T01:37:36.621Z,100328.97
2023-05-11T01:40:15.916Z,100334.59
2023-05-11T01:42:52.595Z,100343.84
2023-05-11T01:45:27.503Z,100342.97
2023-05-11T01:48:03.365Z,100336.13
2023-05-11T01:50:37.137Z,100342.53
2023-05-11T01:53:08.912Z,100348.56
2023-05-11T01:55:42.559Z,100345.31
2023-05-11T01:58:17.073Z,100352.94
2023-05-11T02:00:48.783Z,100343.69
2023-05-11T02:03:23.986Z,100330.38
2023-05-11T02:05:57.375Z,100330.00
2023-05-11T02:08:30.066Z,100317.53
2023-05-11T02:11:01.416Z,100319.53
2023-05-11T02:13:33.974Z,100316.72
2023-05-11T02:16:06.364Z,100310.28
2023-05-11T02:18:42.180Z,100315.91
2023-05-11T02:21:15.284Z,100313.91
2023-05-11T02:23:48.495Z,100309.44
2023-05-11T02:26:20.375Z,100305.84
2023-05-11T02:28:50.452Z,100302.19
2023-05-11T02:31:26.599Z,100308.25
2023-05-11T02:34:06.833Z,100311.47
2023-05-11T02:36:41.215Z,100309.84
2023-05-11T02:39:15.971Z,100312.66
2023-05-11T02:41:49.031Z,100320.34
2023-05-11T02:44:22.237Z,100325.13
2023-05-11T02:46:57.320Z,100324.72
2023-05-11T02:49:33.615Z,100324.72
2023-05-11T02:52:05.951Z,100324.72
2023-05-11T02:54:37.449Z,100331.19
2023-05-11T02:57:08.271Z,100337.59
2023-05-11T02:59:39.333Z,100333.59
2023-05-11T03:02:10.568Z,100327.56
2023-05-11T03:04:42.620Z,100331.63
2023-05-11T03:07:13.071Z,100336.09
2023-05-11T03:09:43.640Z,100332.03
2023-05-11T03:12:14.124Z,100330.84
2023-05-11T03:14:45.947Z,100333.28
2023-05-11T03:17:18.369Z,100332.91
2023-05-11T03:19:51.752Z,100337.75
2023-05-11T03:22:25.415Z,100336.16
2023-05-11T03:24:56.588Z,100322.06
2023-05-11T03:27:34.897Z,100324.47
2023-05-11T03:30:10.221Z,100332.56
2023-05-11T03:32:40.783Z,100333.75
2023-05-11T03:35:13.056Z,100340.63
2023-05-11T03:37:44.806Z,100340.22
2023-05-11T03:40:19.346Z,100328.56
2023-05-11T03:42:51.348Z,100331.41
2023-05-11T03:45:23.880Z,100335.44
2023-05-11T03:47:56.664Z,100341.88
2023-05-11T03:50:31.130Z,100346.31
2023-05-11T03:53:02.507Z,100341.13
2023-05-11T03:55:32.758Z,100332.66
2023-05-11T03:58:04.456Z,100337.09
2023-05-11T04:00:35.000Z,100340.34
2023-05-11T04:03:08.282Z,100346.78
2023-05-11T04:05:40.890Z,100339.16
2023-05-11T04:08:13.433Z,100343.56
2023-05-11T04:10:43.765Z,100344.41
2023-05-11T04:13:13.493Z,100358.94
2023-05-11T04:15:43.983Z,100361.34
2023-05-11T04:18:14.309Z,100363.78
2023-05-11T04:20:46.604Z,100360.59
2023-05-11T04:23:18.336Z,100358.22
2023-05-11T04:25:49.329Z,100358.22
2023-05-11T04:28:20.243Z,100373.13
2023-05-11T04:30:56.187Z,100372.34
2023-05-11T04:33:27.345Z,100369.94
2023-05-11T04:36:00.178Z,100362.72
2023-05-11T04:38:31.394Z,100367.56
2023-05-11T04:41:05.861Z,100368.81
2023-05-11T04:43:36.722Z,100360.75
2023-05-11T04:46:07.579Z,100368.88
2023-05-11T04:48:38.177Z,100361.63
2023-05-11T04:51:11.311Z,100363.28
2023-05-11T04:53:42.458Z,100376.63
2023-05-11T04:56:13.142Z,100381.50
2023-05-11T04:58:44.450Z,100375.06
2023-05-11T05:01:15.032Z,100382.75
2023-05-11T05:03:45.653Z,100376.75
2023-05-11T05:06:18.186Z,100384.84
2023-05-11T05:08:48.731Z,100387.69
2023-05-11T05:11:18.870Z,100391.38
2023-05-11T05:13:48.949Z,100401.88
2023-05-11T05:16:18.839Z,100399.91
2023-05-11T05:18:49.459Z,100397.13
2023-05-11T05:21:21.367Z,100401.59
2023-05-11T05:23:51.347Z,100398.00
2023-05-11T05:26:22.167Z,100394.38
2023-05-11T05:28:52.675Z,100399.22
2023-05-11T05:31:23.276Z,100400.88
2023-05-11T05:33:53.465Z,100391.22
2023-05-11T05:36:25.989Z,100387.22
2023-05-11T05:38:56.605Z,100393.72
2023-05-11T05:41:27.431Z,100394.16
2023-05-11T05:43:57.521Z,100408.72
2023-05-11T05:46:28.145Z,100414.81
2023-05-11T05:48:58.556Z,100416.44
2023-05-11T05:51:31.066Z,100400.75
2023-05-11T05:54:01.730Z,100402.38
2023-05-11T05:56:32.500Z,100417.78
2023-05-11T05:59:02.943Z,100417.00
2023-05-11T06:01:33.794Z,100414.19
2023-05-11T06:04:04.732Z,100412.59
2023-05-11T06:06:37.434Z,100417.91
2023-05-11T06:09:08.377Z,100417.50
2023-05-11T06:11:39.261Z,100409.44
2023-05-11T06:14:09.761Z,100424.00
2023-05-11T06:16:40.460Z,100420.84
2023-05-11T06:19:12.004Z,100422.84
2023-05-11T06:21:46.432Z,100428.94
2023-05-11T06:24:16.920Z,100427.34
2023-05-11T06:26:47.406Z,100414.41
2023-05-11T06:29:18.077Z,100424.53
2023-05-11T06:31:50.327Z,100414.84
2023-05-11T06:34:20.895Z,100412.41
2023-05-11T06:36:53.420Z,100409.59
2023-05-11T06:39:23.854Z,100411.22
2023-05-11T06:41:57.052Z,100399.50
2023-05-11T06:44:29.203Z,100397.09
2023-05-11T06:47:01.563Z,100401.16
2023-05-11T06:49:32.058Z,100404.81
2023-05-11T06:52:04.279Z,100412.09
2023-05-11T06:54:34.866Z,100404.38
2023-05-11T06:57:05.834Z,100403.97
2023-05-11T06:59:36.330Z,100414.09
2023-05-11T07:02:06.388Z,100410.03
2023-05-11T07:04:36.621Z,100410.44
2023-05-11T07:07:11.796Z,100406.41
2023-05-11T07:09:42.961Z,100403.97
2023-05-11T07:12:13.839Z,100400.69
2023-05-11T07:14:43.757Z,100386.59
2023-05-11T07:17:13.901Z,100390.19
2023-05-11T07:19:44.383Z,100386.94
2023-05-11T07:22:17.049Z,100390.19
2023-05-11T07:24:47.204Z,100391.78
2023-05-11T07:27:17.818Z,100382.84
2023-05-11T07:29:48.274Z,100384.06
2023-05-11T07:32:18.729Z,100383.63
2023-05-11T07:34:49.226Z,100381.16
2023-05-11T07:37:20.842Z,100379.13
2023-05-11T07:39:51.398Z,100388.44
2023-05-11T07:42:21.485Z,100375.09
2023-05-11T07:44:51.996Z,100361.69
2023-05-11T07:47:23.775Z,100368.97
2023-05-11T07:49:54.218Z,100362.84
2023-05-11T07:52:27.710Z,100373.78
2023-05-11T07:54:58.292Z,100374.56
2023-05-11T07:57:28.883Z,100376.16
2023-05-11T07:59:58.770Z,100370.06
2023-05-11T08:02:29.705Z,100378.13
2023-05-11T08:05:00.326Z,100360.66
2023-05-11T08:07:33.004Z,100363.06
2023-05-11T08:10:03.513Z,100373.19
2023-05-11T08:12:33.930Z,100356.53
2023-05-11T08:15:04.962Z,100361.38
2023-05-11T08:17:35.622Z,100358.09
2023-05-11T08:20:07.027Z,100359.69
2023-05-11T08:22:39.618Z,100353.13
2023-05-11T08:25:11.343Z,100361.22
2023-05-11T08:27:41.980Z,100354.28
2023-05-11T08:30:14.237Z,100362.34
2023-05-11T08:35:18.127Z,100367.56
2023-05-11T08:37:50.933Z,100374.84
2023-05-11T08:40:22.794Z,100374.41
2023-05-11T08:42:57.929Z,100376.81
2023-05-11T08:45:29.780Z,100370.28
2023-05-11T08:48:01.990Z,100374.72
2023-05-11T08:50:32.272Z,100371.88
2023-05-11T08:53:05.661Z,100383.19
2023-05-11T08:55:39.108Z,100378.69
2023-05-11T08:58:10.361Z,100375.03
2023-05-11T09:00:41.158Z,100371.31
2023-05-11T09:03:13.193Z,100371.72
2023-05-11T09:05:45.697Z,100368.47
2023-05-11T09:08:20.204Z,100373.28
2023-05-11T09:10:52.476Z,100367.19
2023-05-11T09:13:24.918Z,100362.69
2023-05-11T09:15:55.126Z,100364.31
2023-05-11T09:18:25.294Z,100359.81
2023-05-11T09:20:56.224Z,100362.22
2023-05-11T09:23:30.363Z,100371.56
2023-05-11T09:26:00.322Z,100361.81
2023-05-11T09:28:35.929Z,100371.16
2023-05-11T09:31:07.165Z,100369.13
2023-05-11T09:33:37.657Z,100371.53
2023-05-11T09:36:09.673Z,100358.94
2023-05-11T09:38:42.269Z,100372.72
2023-05-11T09:41:12.838Z,100369.47
2023-05-11T09:43:43.721Z,100359.72
2023-05-11T09:46:24.459Z,100359.31
2023-05-11T09:49:02.819Z,100350.34
2023-05-11T09:51:35.128Z,100351.16
2023-05-11T09:54:22.165Z,100350.72
2023-05-11T09:56:58.727Z,100351.53
2023-05-11T09:59:43.337Z,100339.75
2023-05-11T10:02:25.360Z,100339.75
2023-05-11T10:04:58.428Z,100344.63
2023-05-11T10:07:34.593Z,100341.38
2023-05-11T10:10:09.750Z,100349.91
2023-05-11T10:12:40.816Z,100348.28
2023-05-11T10:15:13.855Z,100349.91
2023-05-11T10:17:46.882Z,100345.78
2023-05-11T10:20:20.536Z,100341.38
2023-05-11T10:22:55.704Z,100340.94
2023-05-11T10:25:29.026Z,100338.88
2023-05-11T10:28:00.868Z,100330.34
2023-05-11T10:30:32.680Z,100332.78
2023-05-11T10:33:04.659Z,100336.44
2023-05-11T10:35:36.083Z,100342.13
2023-05-11T10:38:07.100Z,100340.09
2023-05-11T10:40:45.528Z,100330.31
2023-05-11T10:43:57.046Z,100340.09
2023-05-11T10:46:59.596Z,100337.66
2023-05-11T10:50:07.666Z,100331.97
2023-05-11T10:53:05.210Z,100324.66
2023-05-11T10:56:06.552Z,100325.47
2023-05-11T10:59:02.779Z,100312.50
2023-05-11T11:01:41.499Z,100316.13
2023-05-11T11:04:14.101Z,100316.94
2023-05-11T11:06:46.674Z,100311.25
2023-05-11T11:09:19.017Z,100311.25
2023-05-11T11:11:51.543Z,100321.41
2023-05-11T11:14:22.389Z,100325.88
2023-05-11T11:17:35.888Z,100318.56
2023-05-11T11:20:08.945Z,100327.09
2023-05-11T11:22:51.596Z,100324.63
2023-05-11T11:26:03.549Z,100316.50
2023-05-11T11:29:15.433Z,100313.28
2023-05-11T11:31:47.397Z,100309.22
2023-05-11T11:34:39.862Z,100302.28
2023-05-11T11:37:15.023Z,100303.53
2023-05-11T11:40:15.225Z,100294.97
2023-05-11T11:42:48.029Z,100290.53
2023-05-11T11:45:40.325Z,100290.13
2023-05-11T11:48:36.072Z,100292.13
2023-05-11T11:51:11.078Z,100288.50
2023-05-11T11:54:02.040Z,100276.31
2023-05-11T11:56:46.707Z,100276.31
2023-05-11T11:59:20.461Z,100275.50
2023-05-11T12:01:57.577Z,100261.28
2023-05-11T12:05:00.276Z,100256.81
2023-05-11T12:07:36.956Z,100273.09
2023-05-11T12:10:09.123Z,100265.81
2023-05-11T12:12:41.936Z,100257.28
2023-05-11T12:15:28.075Z,100254.41
2023-05-11T12:18:03.006Z,100252.81
2023-05-11T12:20:33.963Z,100246.28
2023-05-11T12:23:04.835Z,100246.28
2023-05-11T12:25:35.593Z,100250.38
2023-05-11T12:28:07.053Z,100253.22
2023-05-11T12:30:38.584Z,100250.38
2023-05-11T12:33:11.480Z,100243.44
2023-05-11T12:35:42.223Z,100240.25
2023-05-11T12:38:14.078Z,100237.41
2023-05-11T12:40:51.493Z,100236.16
2023-05-11T12:43:23.228Z,100247.53
2023-05-11T12:45:54.105Z,100240.25
2023-05-11T12:48:26.320Z,100239.44
2023-05-11T12:50:57.253Z,100239.44
2023-05-11T12:53:27.829Z,100232.50
2023-05-11T12:56:02.007Z,100236.97
2023-05-11T12:58:40.381Z,100230.47
2023-05-11T13:01:11.910Z,100232.13
2023-05-11T13:03:50.004Z,100238.19
2023-05-11T13:06:23.177Z,100228.88
2023-05-11T13:08:54.245Z,100223.59
2023-05-11T13:11:27.324Z,100226.44
2023-05-11T13:13:59.437Z,100221.19
2023-05-11T13:16:31.447Z,100218.34
2023-05-11T13:19:07.104Z,100214.69
2023-05-11T13:21:37.891Z,100219.53
2023-05-11T13:24:08.864Z,100222.00
2023-05-11T13:26:39.329Z,100228.50
2023-05-11T13:29:11.131Z,100234.59
2023-05-11T13:31:53.196Z,100223.22
2023-05-11T13:34:41.417Z,100223.66
2023-05-11T13:37:11.884Z,100226.13
2023-05-11T13:39:42.488Z,100222.06
2023-05-11T13:42:13.510Z,100218.81
2023-05-11T13:44:44.172Z,100225.75
2023-05-11T13:47:15.035Z,100227.34
2023-05-11T13:49:48.154Z,100218.44
2023-05-11T13:52:20.825Z,100222.53
2023-05-11T13:54:52.516Z,100222.16
2023-05-11T13:57:24.746Z,100219.72
2023-05-11T13:59:56.229Z,100224.59
2023-05-11T14:02:28.338Z,100224.22
2023-05-11T14:05:00.624Z,100219.34
2023-05-11T14:07:42.867Z,100216.13
2023-05-11T14:10:16.700Z,100195.84
2023-05-11T14:12:47.465Z,100168.66
2023-05-11T14:15:18.327Z,100153.63
2023-05-11T14:17:49.182Z,100169.06
2023-05-11T14:20:21.510Z,100184.53
2023-05-11T14:22:52.218Z,100174.81
2023-05-11T14:25:23.068Z,100157.75
2023-05-11T14:27:56.275Z,100151.25
2023-05-11T14:30:27.649Z,100128.94
2023-05-11T14:33:00.952Z,100129.34
2023-05-11T14:35:33.710Z,100122.09
2023-05-11T14:38:05.275Z,100103.41
2023-05-11T14:40:36.132Z,100107.50
2023-05-11T14:43:07.151Z,100124.16
2023-05-11T14:45:39.799Z,100131.91
2023-05-11T14:48:10.823Z,100131.50
2023-05-11T14:50:45.807Z,100117.31
2023-05-11T14:53:18.198Z,100114.06
2023-05-11T14:55:50.565Z,100107.56
2023-05-11T14:58:25.473Z,100104.38
2023-05-11T15:01:00.226Z,100108.44
2023-05-11T15:03:31.315Z,100104.78
2023-05-11T15:06:09.159Z,100121.03
2023-05-11T15:08:53.062Z,100132.84
2023-05-11T15:11:26.628Z,100131.22
2023-05-11T15:13:57.466Z,100132.44
2023-05-11T15:16:29.028Z,100131.63
2023-05-11T15:19:04.102Z,100130.00
2023-05-11T15:21:38.320Z,100123.97
2023-05-11T15:24:11.853Z,100121.13
2023-05-11T15:26:43.549Z,100124.38
2023-05-11T15:29:14.580Z,100117.06
2023-05-11T15:31:47.758Z,100133.31
2023-05-11T15:34:18.421Z,100123.59
2023-05-11T15:36:52.856Z,100125.22
2023-05-11T15:39:25.198Z,100122.00
2023-05-11T15:41:57.837Z,100120.38
2023-05-11T15:44:32.045Z,100124.44
2023-05-11T15:47:07.889Z,100128.50
2023-05-11T15:49:49.110Z,100129.75
2023-05-11T15:52:43.371Z,100122.88
2023-05-11T15:55:42.669Z,100126.94
2023-05-11T15:58:18.784Z,100118.88
2023-05-11T16:01:02.166Z,100119.28
2023-05-11T16:03:52.939Z,100113.22
2023-05-11T16:06:32.264Z,100115.25
2023-05-11T16:09:16.680Z,100105.13
2023-05-11T16:11:59.213Z,100111.22
2023-05-11T16:14:51.087Z,100118.94
2023-05-11T16:17:32.329Z,100114.91
2023-05-11T16:20:16.637Z,100116.94
2023-05-11T16:22:54.294Z,100113.72
2023-05-11T16:25:37.219Z,100120.19
2023-05-11T16:28:15.609Z,100116.19
2023-05-11T16:31:05.176Z,100112.53
2023-05-11T16:33:47.308Z,100097.97
2023-05-11T16:36:29.423Z,100111.34
2023-05-11T16:39:06.360Z,100129.59
2023-05-11T16:41:48.850Z,100135.28
2023-05-11T16:44:28.039Z,100128.41
2023-05-11T16:47:09.157Z,100132.09
2023-05-11T16:49:48.054Z,100133.31
2023-05-11T16:52:27.856Z,100135.31
2023-05-11T16:55:05.587Z,100134.16
2023-05-11T16:57:51.603Z,100137.81
2023-05-11T17:00:34.204Z,100140.25
2023-05-11T17:03:26.436Z,100144.31
2023-05-11T17:06:04.174Z,100143.50
2023-05-11T17:08:50.579Z,100144.75
2023-05-11T17:11:30.816Z,100145.97
2023-05-11T17:14:14.193Z,100148.00
2023-05-11T17:16:50.438Z,100138.69
2023-05-11T17:19:31.705Z,100133.41
2023-05-11T17:22:10.783Z,100126.94
2023-05-11T17:24:47.123Z,100125.31
2023-05-11T17:27:24.648Z,100128.16
2023-05-11T17:30:02.262Z,100122.91
2023-05-11T17:32:45.380Z,100140.75
2023-05-11T17:35:31.709Z,100135.50
2023-05-11T17:38:11.665Z,100129.81
2023-05-11T17:40:46.109Z,100124.53
2023-05-11T17:43:24.171Z,100128.19
2023-05-11T17:46:05.122Z,100116.03
2023-05-11T17:48:53.789Z,100103.88
2023-05-11T17:51:30.401Z,100105.94
2023-05-11T17:54:15.169Z,100105.09
2023-05-11T17:56:49.226Z,100113.63
2023-05-11T17:59:30.060Z,100110.78
2023-05-11T18:02:09.181Z,100105.50
2023-05-11T18:04:42.695Z,100116.84
2023-05-11T18:07:20.101Z,100115.25
2023-05-11T18:09:53.383Z,100122.53
2023-05-11T18:12:34.048Z,100116.47
2023-05-11T18:15:08.988Z,100116.47
2023-05-11T18:17:57.092Z,100102.28
2023-05-11T18:20:37.512Z,100098.59
2023-05-11T18:23:13.612Z,100076.34
2023-05-11T18:25:49.013Z,100062.13
2023-05-11T18:28:28.185Z,100086.06
2023-05-11T18:31:08.576Z,100079.59
2023-05-11T18:33:51.465Z,100085.69
2023-05-11T18:36:35.579Z,100083.66
2023-05-11T18:39:23.714Z,100082.06
2023-05-11T18:42:06.515Z,100085.31
2023-05-11T18:44:45.080Z,100078.81
2023-05-11T18:47:20.579Z,100092.22
2023-05-11T18:50:02.142Z,100087.34
2023-05-11T18:52:40.940Z,100077.22
2023-05-11T18:55:51.743Z,100076.41
2023-05-11T18:58:32.996Z,100064.69
2023-05-11T19:01:15.066Z,100066.28
2023-05-11T19:03:56.305Z,100053.31
2023-05-11T19:06:39.630Z,100054.13
2023-05-11T19:09:16.616Z,100056.16
2023-05-11T19:11:51.386Z,100061.06
2023-05-11T19:14:35.913Z,100063.88
2023-05-11T19:17:09.734Z,100062.28
2023-05-11T19:19:42.170Z,100048.88
2023-05-11T19:22:21.703Z,100046.84
2023-05-11T19:25:07.515Z,100046.84
2023-05-11T19:27:45.733Z,100036.72
2023-05-11T19:30:22.975Z,100044.41
2023-05-11T19:32:58.065Z,100038.75
2023-05-11T19:35:43.066Z,100037.13
2023-05-11T19:38:18.816Z,100045.66
2023-05-11T19:40:54.309Z,100045.66
2023-05-11T19:43:31.892Z,100039.19
2023-05-11T19:46:10.448Z,100038.34
2023-05-11T19:48:47.906Z,100035.94
2023-05-11T19:51:24.555Z,100038.78
2023-05-11T19:54:03.791Z,100031.50
2023-05-11T19:56:40.652Z,100030.72
2023-05-11T19:59:16.657Z,100030.31
2023-05-11T20:01:51.192Z,100031.09
2023-05-11T20:04:23.773Z,100027.47
2023-05-11T20:06:55.647Z,100030.31
2023-05-11T20:09:39.697Z,100025.88
2023-05-11T20:12:23.045Z,100028.69
2023-05-11T20:14:58.854Z,100017.78
2023-05-11T20:17:45.396Z,100013.34
2023-05-11T20:20:28.764Z,100021.03
2023-05-11T20:23:03.973Z,100024.28
2023-05-11T20:25:45.781Z,100024.28
2023-05-11T20:28:22.119Z,100021.88
2023-05-11T20:31:00.483Z,100022.69
2023-05-11T20:36:22.827Z,100026.75
2023-05-11T20:38:57.978Z,100021.50
2023-05-11T20:41:32.660Z,100027.19
2023-05-11T20:44:10.619Z,100017.84
2023-05-11T20:46:51.140Z,100019.88
2023-05-11T20:49:37.580Z,100020.31
2023-05-11T20:52:14.213Z,100032.91
2023-05-11T20:54:48.209Z,100027.22
2023-05-11T20:57:27.438Z,100030.84
2023-05-11T21:00:06.961Z,100009.38
2023-05-11T21:02:45.950Z,100012.22
2023-05-11T21:05:25.423Z,100018.31
2023-05-11T21:07:57.629Z,100025.22
2023-05-11T21:10:31.730Z,100020.75
2023-05-11T21:13:08.274Z,100026.44
2023-05-11T21:15:44.351Z,100014.31
2023-05-11T21:18:16.715Z,100024.03
2023-05-11T21:20:56.919Z,100026.88
2023-05-11T21:23:30.680Z,100025.25
2023-05-11T21:26:06.546Z,100028.09
2023-05-11T21:28:42.516Z,100025.25
2023-05-11T21:31:15.497Z,100018.75
2023-05-11T21:33:58.213Z,100014.34
2023-05-11T21:36:28.912Z,100016.34
2023-05-11T21:39:02.001Z,100014.34
2023-05-11T21:41:35.130Z,100010.69
2023-05-11T21:44:11.093Z,100004.22
2023-05-11T21:46:43.667Z,100001.38
2023-05-11T21:49:20.688Z,99996.94
2023-05-11T21:51:53.299Z,99998.16
2023-05-11T21:54:31.734Z,99998.94
2023-05-11T21:57:06.365Z,99999.38
2023-05-11T21:59:42.132Z,100006.28
2023-05-11T22:02:13.648Z,100045.19
2023-05-11T22:04:45.896Z,100095.44
2023-05-11T22:07:16.759Z,100102.31
2023-05-11T22:09:51.541Z,100112.88
2023-05-11T22:12:22.949Z,100107.59
2023-05-11T22:14:58.990Z,100049.28
2023-05-11T22:17:29.997Z,100042.78
2023-05-11T22:20:00.989Z,100040.78
2023-05-11T22:22:31.238Z,100036.34
2023-05-11T22:25:01.891Z,100059.03
2023-05-11T22:27:33.019Z,100123.03
2023-05-11T22:30:05.553Z,100144.47
2023-05-11T22:32:36.561Z,100116.53
2023-05-11T22:35:08.010Z,100097.50
2023-05-11T22:37:38.588Z,100091.00
2023-05-11T22:40:10.886Z,100093.84
2023-05-11T22:42:42.167Z,100116.53
2023-05-11T22:45:15.653Z,100143.69
2023-05-11T22:47:46.311Z,100112.06
2023-05-11T22:50:16.511Z,100084.56
2023-05-11T22:52:47.789Z,100090.22
2023-05-11T22:55:18.434Z,100092.22
2023-05-11T22:57:48.443Z,100085.75
2023-05-11T23:00:21.956Z,100093.84
2023-05-11T23:02:52.345Z,100094.25
2023-05-11T23:05:22.993Z,100108.44
2023-05-11T23:07:53.320Z,100111.28
2023-05-11T23:10:23.836Z,100092.63
2023-05-11T23:12:54.438Z,100070.75
2023-05-11T23:15:27.462Z,100107.59
2023-05-11T23:17:57.942Z,100129.50
2023-05-11T23:20:28.641Z,100134.34
2023-05-11T23:23:00.131Z,100118.59
2023-05-11T23:25:31.654Z,100105.19
2023-05-11T23:28:01.772Z,100105.63
2023-05-11T23:30:34.221Z,100136.84
2023-05-11T23:33:04.338Z,100169.25
2023-05-11T23:35:35.554Z,100166.81
2023-05-11T23:38:06.051Z,100146.97
2023-05-11T23:40:37.097Z,100132.41
2023-05-11T23:43:07.809Z,100148.59
2023-05-11T23:45:40.560Z,100156.31
2023-05-11T23:48:10.670Z,100176.56
2023-05-11T23:50:41.186Z,100189.13
2023-05-11T23:53:11.969Z,100181.88
2023-05-11T23:55:41.849Z,100162.03
2023-05-11T23:58:12.322Z,100172.97
